Time;durP1;ratioP1;P1;durP2;ratioP2;P2;SDS_P1;SDS_P2;PMS_P1;PMS_P2;Temp;Humidity;BMP_temperature;BMP_pressure;BME280_temperature;BME280_humidity;BME280_pressure;Samples;Min_cycle;Max_cycle;Signal;HPM_P1;HPM_P2
2022/10/28 00:01:09;;;;;;;;;6.80;6.80;;;;;;;;5221222;28;9547;-74
2022/10/28 00:03:41;;;;;;;;;6.60;6.60;;;;;;;;5268536;28;8789;-75
2022/10/28 00:06:18;;;;;;;;;5.00;5.00;;;;;;;;5285875;28;8792;-77
2022/10/28 00:08:49;;;;;;;;;2.20;2.20;;;;;;;;5251724;28;8824;-77
2022/10/28 00:11:31;;;;;;;;;7.20;7.20;;;;;;;;5268378;28;8778;-77
2022/10/28 00:14:03;;;;;;;;;6.00;6.00;;;;;;;;5251845;28;8785;-77
2022/10/28 00:16:36;;;;;;;;;7.00;7.00;;;;;;;;5234951;28;8811;-77
2022/10/28 00:19:10;;;;;;;;;6.00;6.00;;;;;;;;5252589;28;8933;-77
2022/10/28 00:21:42;;;;;;;;;6.00;6.00;;;;;;;;5272649;28;8806;-77
2022/10/28 00:24:13;;;;;;;;;6.00;6.00;;;;;;;;5251225;28;8777;-77
2022/10/28 00:26:45;;;;;;;;;6.80;6.80;;;;;;;;5268015;28;8781;-77
2022/10/28 00:29:17;;;;;;;;;5.20;5.20;;;;;;;;5218109;28;9612;-77
2022/10/28 00:31:49;;;;;;;;;7.00;7.00;;;;;;;;5251256;28;8790;-77
2022/10/28 00:34:21;;;;;;;;;14.20;14.20;;;;;;;;5268072;28;8781;-75
2022/10/28 00:36:52;;;;;;;;;9.80;9.80;;;;;;;;5234416;28;8916;-75
2022/10/28 00:39:42;;;;;;;;;21.60;19.60;;;;;;;;5271945;28;8787;-75
2022/10/28 00:42:16;;;;;;;;;53.00;44.60;;;;;;;;5255263;28;8930;-75
2022/10/28 00:44:55;;;;;;;;;33.00;32.60;;;;;;;;5254189;28;8775;-75
2022/10/28 00:47:29;;;;;;;;;15.60;15.60;;;;;;;;5271974;28;8819;-75
2022/10/28 00:50:12;;;;;;;;;11.00;11.00;;;;;;;;5254681;28;8790;-74
2022/10/28 00:53:04;;;;;;;;;8.40;8.40;;;;;;;;5290026;28;8775;-74
2022/10/28 00:55:35;;;;;;;;;8.20;8.20;;;;;;;;5254851;28;8933;-73
2022/10/28 00:58:08;;;;;;;;;10.20;10.20;;;;;;;;5254810;28;8805;-71
2022/10/28 01:00:39;;;;;;;;;7.00;7.00;;;;;;;;5218278;28;8811;-71
2022/10/28 01:03:11;;;;;;;;;7.00;7.00;;;;;;;;5234136;28;8808;-71
2022/10/28 01:05:45;;;;;;;;;10.00;10.00;;;;;;;;5253693;28;8781;-71
2022/10/28 01:08:35;;;;;;;;;7.60;7.40;;;;;;;;5256994;28;8829;-72
2022/10/28 01:11:28;;;;;;;;;6.00;6.00;;;;;;;;5257322;28;8879;-76
2022/10/28 01:14:18;;;;;;;;;11.80;11.80;;;;;;;;5236765;28;8779;-75
2022/10/28 01:16:55;;;;;;;;;13.80;12.00;;;;;;;;5237375;28;8795;-75
2022/10/28 01:19:45;;;;;;;;;9.20;9.20;;;;;;;;5233315;28;8840;-74
2022/10/28 01:22:16;;;;;;;;;6.40;6.40;;;;;;;;5250132;28;8837;-74
2022/10/28 01:24:59;;;;;;;;;7.20;7.20;;;;;;;;5247559;28;8884;-74
2022/10/28 01:27:33;;;;;;;;;8.80;8.80;;;;;;;;5254152;28;8887;-74
2022/10/28 01:30:25;;;;;;;;;17.80;16.80;;;;;;;;5271103;28;8783;-73
2022/10/28 01:33:23;;;;;;;;;12.20;12.20;;;;;;;;5269690;28;8793;-73
2022/10/28 01:36:00;;;;;;;;;6.00;5.80;;;;;;;;5250146;28;9563;-74
2022/10/28 01:38:43;;;;;;;;;10.00;7.00;;;;;;;;5237917;28;8795;-74
2022/10/28 01:41:36;;;;;;;;;7.00;7.00;;;;;;;;5273673;28;8791;-75
2022/10/28 01:44:24;;;;;;;;;5.20;5.20;;;;;;;;5242315;28;8947;-75
2022/10/28 01:47:17;;;;;;;;;13.60;13.60;;;;;;;;5264115;28;8804;-77
2022/10/28 01:50:08;;;;;;;;;14.80;14.60;;;;;;;;5266476;28;8806;-77
2022/10/28 01:52:41;;;;;;;;;11.00;11.00;;;;;;;;5282961;28;8778;-73
2022/10/28 01:55:39;;;;;;;;;8.20;8.20;;;;;;;;5235412;28;8804;-74
2022/10/28 01:58:12;;;;;;;;;12.20;11.80;;;;;;;;5237632;28;8866;-75
2022/10/28 02:00:44;;;;;;;;;10.00;10.00;;;;;;;;5270300;28;8817;-75
2022/10/28 02:03:16;;;;;;;;;7.40;7.40;;;;;;;;5230803;28;8793;-75
2022/10/28 02:05:48;;;;;;;;;8.80;8.80;;;;;;;;5249364;28;8797;-75
2022/10/28 02:08:38;;;;;;;;;11.60;11.60;;;;;;;;5249406;28;8813;-75
2022/10/28 02:11:18;;;;;;;;;10.60;10.60;;;;;;;;5232658;28;9574;-75
2022/10/28 02:14:08;;;;;;;;;14.40;14.40;;;;;;;;5266182;28;8904;-75
2022/10/28 02:16:39;;;;;;;;;11.40;11.40;;;;;;;;5267071;28;8817;-75
2022/10/28 02:19:29;;;;;;;;;9.60;9.60;;;;;;;;5247781;28;8809;-75
2022/10/28 02:22:19;;;;;;;;;9.60;9.60;;;;;;;;5253436;28;9514;-75
2022/10/28 02:24:59;;;;;;;;;11.80;11.40;;;;;;;;5253298;28;9505;-76
2022/10/28 02:27:45;;;;;;;;;14.40;14.40;;;;;;;;5236513;28;8863;-76
2022/10/28 02:30:35;;;;;;;;;12.40;12.40;;;;;;;;5272864;28;9490;-75
2022/10/28 02:33:09;;;;;;;;;14.00;14.00;;;;;;;;5264649;28;8805;-76
2022/10/28 02:35:46;;;;;;;;;14.40;14.40;;;;;;;;5248748;28;8789;-76
2022/10/28 02:38:21;;;;;;;;;15.80;15.80;;;;;;;;5248861;28;8797;-75
2022/10/28 02:40:53;;;;;;;;;18.80;18.80;;;;;;;;5232283;28;9484;-75
2022/10/28 02:43:25;;;;;;;;;6.00;6.00;;;;;;;;5223062;28;8801;-76
2022/10/28 02:46:16;;;;;;;;;13.80;13.80;;;;;;;;5267124;28;8801;-74
2022/10/28 02:48:50;;;;;;;;;10.60;10.60;;;;;;;;5248931;28;8812;-74
2022/10/28 02:51:25;;;;;;;;;7.40;7.00;;;;;;;;5265715;28;8883;-76
2022/10/28 02:53:59;;;;;;;;;11.40;11.40;;;;;;;;5249133;28;8817;-75
2022/10/28 02:56:35;;;;;;;;;10.40;10.40;;;;;;;;5232070;28;9547;-75
2022/10/28 02:59:08;;;;;;;;;12.20;11.60;;;;;;;;5250786;28;8807;-75
2022/10/28 03:01:39;;;;;;;;;9.60;9.60;;;;;;;;5269465;28;8799;-75
2022/10/28 03:04:10;;;;;;;;;7.00;7.00;;;;;;;;5252346;28;8795;-76
2022/10/28 03:06:42;;;;;;;;;7.00;7.00;;;;;;;;5236026;28;8787;-77
2022/10/28 03:09:13;;;;;;;;;5.20;5.20;;;;;;;;5269639;28;8823;-76
2022/10/28 03:11:44;;;;;;;;;3.40;3.40;;;;;;;;5253208;28;8788;-75
2022/10/28 03:14:15;;;;;;;;;9.60;9.40;;;;;;;;5270030;28;8801;-76
2022/10/28 03:17:06;;;;;;;;;9.00;9.00;;;;;;;;5264809;28;8817;-76
2022/10/28 03:19:37;;;;;;;;;6.40;6.40;;;;;;;;5232006;28;8801;-76
2022/10/28 03:22:08;;;;;;;;;7.00;7.00;;;;;;;;5253547;28;8818;-76
2022/10/28 03:24:39;;;;;;;;;10.00;10.00;;;;;;;;5236359;28;8867;-75
2022/10/28 03:27:10;;;;;;;;;11.00;11.00;;;;;;;;5252591;28;8794;-75
2022/10/28 03:29:41;;;;;;;;;7.00;7.00;;;;;;;;5252799;28;8779;-75
2022/10/28 03:32:12;;;;;;;;;10.25;10.25;;;;;;;;5269504;28;8802;-75
2022/10/28 03:34:43;;;;;;;;;14.20;14.20;;;;;;;;5252163;28;11122;-75
2022/10/28 03:37:15;;;;;;;;;13.60;13.60;;;;;;;;5247542;28;8962;-76
2022/10/28 03:39:45;;;;;;;;;19.00;19.00;;;;;;;;5235728;28;8916;-76
2022/10/28 03:42:17;;;;;;;;;7.60;7.20;;;;;;;;5243632;28;10803;-76
2022/10/28 03:45:06;;;;;;;;;9.00;8.00;;;;;;;;5259013;28;8791;-76
2022/10/28 03:47:39;;;;;;;;;10.80;10.40;;;;;;;;5273083;28;8826;-76
2022/10/28 03:50:10;;;;;;;;;3.80;3.80;;;;;;;;5273236;28;8783;-78
2022/10/28 03:52:45;;;;;;;;;11.00;10.00;;;;;;;;5259135;28;9555;-77
2022/10/28 03:55:34;;;;;;;;;10.00;10.00;;;;;;;;5273373;28;9509;-78
2022/10/28 03:58:05;;;;;;;;;12.00;12.00;;;;;;;;5238641;28;8813;-77
2022/10/28 04:00:55;;;;;;;;;8.80;8.80;;;;;;;;5237923;28;8793;-75
2022/10/28 04:03:26;;;;;;;;;10.00;10.00;;;;;;;;5252875;28;8814;-75
2022/10/28 04:05:58;;;;;;;;;2.00;2.00;;;;;;;;5237301;28;8793;-76
2022/10/28 04:08:47;;;;;;;;;10.00;10.00;;;;;;;;5238071;28;8833;-75
2022/10/28 04:11:19;;;;;;;;;11.20;11.20;;;;;;;;5235132;28;8812;-75
2022/10/28 04:13:50;;;;;;;;;15.60;14.40;;;;;;;;5251366;28;8804;-74
2022/10/28 04:16:21;;;;;;;;;7.80;7.80;;;;;;;;5238796;28;8880;-74
2022/10/28 04:18:52;;;;;;;;;7.20;7.20;;;;;;;;5255652;28;8787;-75
2022/10/28 04:21:23;;;;;;;;;9.00;9.00;;;;;;;;5266721;28;8802;-78
2022/10/28 04:23:54;;;;;;;;;10.00;9.20;;;;;;;;5234789;28;8874;-77
2022/10/28 04:26:26;;;;;;;;;10.20;10.20;;;;;;;;5250865;28;8867;-75
2022/10/28 04:28:57;;;;;;;;;11.40;11.40;;;;;;;;5251511;28;8829;-75
2022/10/28 04:31:28;;;;;;;;;10.60;10.60;;;;;;;;5218117;28;8789;-75
2022/10/28 04:33:59;;;;;;;;;12.40;12.00;;;;;;;;5267279;28;8783;-76
2022/10/28 04:36:30;;;;;;;;;11.00;11.00;;;;;;;;5252666;28;8810;-80
2022/10/28 04:39:02;;;;;;;;;16.00;13.60;;;;;;;;5271989;28;8802;-78
2022/10/28 04:41:33;;;;;;;;;10.80;10.60;;;;;;;;5269232;28;8795;-77
2022/10/28 04:44:04;;;;;;;;;15.00;15.00;;;;;;;;5282582;28;8775;-75
2022/10/28 04:46:36;;;;;;;;;21.00;19.80;;;;;;;;5242605;28;8866;-75
2022/10/28 04:49:07;;;;;;;;;11.00;11.00;;;;;;;;5233364;28;8852;-75
2022/10/28 04:51:57;;;;;;;;;17.80;16.20;;;;;;;;5244708;28;8848;-75
2022/10/28 04:54:46;;;;;;;;;16.40;16.40;;;;;;;;5259985;28;8834;-75
2022/10/28 04:57:36;;;;;;;;;18.60;18.40;;;;;;;;5245380;28;8790;-76
2022/10/28 05:00:08;;;;;;;;;15.20;15.20;;;;;;;;5235053;28;8900;-75
2022/10/28 05:02:39;;;;;;;;;19.60;19.60;;;;;;;;5259779;28;8812;-74
2022/10/28 05:05:10;;;;;;;;;11.40;11.20;;;;;;;;5243684;28;8795;-77
2022/10/28 05:07:41;;;;;;;;;14.40;14.40;;;;;;;;5242887;28;8846;-78
2022/10/28 05:10:16;;;;;;;;;18.40;17.80;;;;;;;;5258530;28;8782;-78
2022/10/28 05:12:48;;;;;;;;;14.80;14.40;;;;;;;;5257233;28;8859;-74
2022/10/28 05:15:19;;;;;;;;;16.80;16.80;;;;;;;;5242258;28;8823;-73
2022/10/28 05:17:51;;;;;;;;;25.40;25.40;;;;;;;;5247328;28;8907;-80
2022/10/28 05:20:22;;;;;;;;;21.80;21.00;;;;;;;;5269775;28;8938;-72
2022/10/28 05:22:55;;;;;;;;;21.00;21.00;;;;;;;;5254036;28;8773;-72
2022/10/28 05:25:26;;;;;;;;;30.20;27.00;;;;;;;;5270936;28;9560;-73
2022/10/28 05:28:01;;;;;;;;;65.20;53.80;;;;;;;;5250709;28;8838;-71
2022/10/28 05:30:32;;;;;;;;;29.40;28.20;;;;;;;;5285477;28;8795;-72
2022/10/28 05:33:04;;;;;;;;;27.60;27.40;;;;;;;;5276023;28;8811;-72
2022/10/28 05:35:35;;;;;;;;;21.20;21.20;;;;;;;;5230011;28;8879;-71
2022/10/28 05:38:06;;;;;;;;;17.20;16.60;;;;;;;;5249500;28;8803;-72
2022/10/28 05:40:38;;;;;;;;;22.40;21.60;;;;;;;;5231725;28;8847;-72
2022/10/28 05:43:10;;;;;;;;;26.80;25.40;;;;;;;;5231274;28;8786;-73
2022/10/28 05:46:01;;;;;;;;;23.60;23.60;;;;;;;;5250289;28;8923;-73
2022/10/28 05:48:33;;;;;;;;;19.80;19.80;;;;;;;;5247967;28;8847;-71
2022/10/28 05:51:04;;;;;;;;;22.60;21.60;;;;;;;;5225103;28;8833;-70
2022/10/28 05:53:53;;;;;;;;;17.40;17.40;;;;;;;;5269860;28;8814;-71
2022/10/28 05:56:24;;;;;;;;;5.40;5.40;;;;;;;;5288233;28;8767;-70
2022/10/28 05:58:55;;;;;;;;;17.00;17.00;;;;;;;;5265133;28;8821;-70
2022/10/28 06:01:45;;;;;;;;;11.00;11.00;;;;;;;;5263644;28;8789;-71
2022/10/28 06:04:16;;;;;;;;;15.40;15.40;;;;;;;;5283247;28;8769;-71
2022/10/28 06:06:46;;;;;;;;;9.80;9.80;;;;;;;;5249397;28;8824;-69
2022/10/28 06:09:18;;;;;;;;;13.60;13.60;;;;;;;;5267412;28;8899;-71
2022/10/28 06:11:49;;;;;;;;;12.80;12.80;;;;;;;;5266110;28;8802;-71
2022/10/28 06:14:38;;;;;;;;;19.80;19.20;;;;;;;;5262461;28;8805;-72
2022/10/28 06:17:09;;;;;;;;;14.80;14.80;;;;;;;;5249508;28;9618;-72
2022/10/28 06:19:40;;;;;;;;;30.00;29.75;;;;;;;;5225433;28;8806;-72
2022/10/28 06:22:11;;;;;;;;;29.00;29.00;;;;;;;;5232386;28;11118;-72
2022/10/28 06:24:42;;;;;;;;;23.00;22.80;;;;;;;;5249033;28;10923;-72
2022/10/28 06:27:13;;;;;;;;;27.40;27.40;;;;;;;;5248908;28;8802;-72
2022/10/28 06:29:44;;;;;;;;;20.75;20.50;;;;;;;;5267208;28;8927;-72
2022/10/28 06:32:15;;;;;;;;;23.60;23.60;;;;;;;;5215788;28;8912;-71
2022/10/28 06:34:47;;;;;;;;;30.80;30.80;;;;;;;;5248138;28;8787;-72
2022/10/28 06:37:18;;;;;;;;;9.40;2.60;;;;;;;;5236307;28;8815;-72
2022/10/28 06:40:07;;;;;;;;;35.60;35.00;;;;;;;;5288427;28;8783;-72
2022/10/28 06:42:38;;;;;;;;;19.60;19.60;;;;;;;;5253190;28;8771;-73
2022/10/28 06:45:09;;;;;;;;;20.40;20.40;;;;;;;;5253136;28;8795;-77
2022/10/28 06:48:00;;;;;;;;;20.60;20.40;;;;;;;;5287761;28;8819;-72
2022/10/28 06:50:50;;;;;;;;;21.80;21.00;;;;;;;;5255408;28;9653;-72
2022/10/28 06:53:21;;;;;;;;;29.20;29.20;;;;;;;;5267036;28;8927;-72
2022/10/28 06:55:56;;;;;;;;;23.20;21.00;;;;;;;;5223860;28;9567;-72
2022/10/28 06:58:27;;;;;;;;;21.80;21.00;;;;;;;;5247185;28;8880;-72
2022/10/28 07:01:02;;;;;;;;;17.20;17.00;;;;;;;;5269330;28;8787;-72
2022/10/28 07:03:33;;;;;;;;;17.80;17.60;;;;;;;;5254223;28;8867;-72
2022/10/28 07:06:04;;;;;;;;;15.00;15.00;;;;;;;;5248320;28;8783;-72
2022/10/28 07:08:53;;;;;;;;;21.20;21.20;;;;;;;;5283197;28;10843;-72
2022/10/28 07:11:24;;;;;;;;;18.40;18.00;;;;;;;;5253719;28;8795;-72
2022/10/28 07:13:55;;;;;;;;;14.00;14.00;;;;;;;;5235980;28;8797;-72
2022/10/28 07:16:26;;;;;;;;;16.00;14.80;;;;;;;;5219480;28;8827;-72
2022/10/28 07:18:57;;;;;;;;;16.60;16.60;;;;;;;;5235908;28;8817;-72
2022/10/28 07:21:28;;;;;;;;;25.20;25.20;;;;;;;;5270512;28;8837;-72
2022/10/28 07:24:18;;;;;;;;;24.00;24.00;;;;;;;;5271705;28;8810;-72
2022/10/28 07:26:49;;;;;;;;;15.00;15.00;;;;;;;;5270532;28;8809;-72
2022/10/28 07:29:39;;;;;;;;;14.40;14.40;;;;;;;;5238102;28;8833;-72
2022/10/28 07:32:10;;;;;;;;;17.50;17.00;;;;;;;;5236148;28;8819;-72
2022/10/28 07:35:00;;;;;;;;;13.60;13.60;;;;;;;;5238270;28;11123;-73
2022/10/28 07:37:31;;;;;;;;;22.60;22.00;;;;;;;;5219036;28;8936;-73
2022/10/28 07:40:02;;;;;;;;;17.80;17.80;;;;;;;;5235557;28;8782;-73
2022/10/28 07:42:34;;;;;;;;;17.20;16.40;;;;;;;;5268923;28;9555;-73
2022/10/28 07:45:05;;;;;;;;;11.80;11.80;;;;;;;;5235711;28;9603;-73
2022/10/28 07:47:36;;;;;;;;;15.60;15.60;;;;;;;;5235466;28;8804;-72
2022/10/28 07:50:08;;;;;;;;;16.20;16.00;;;;;;;;5275967;28;8832;-73
2022/10/28 07:52:39;;;;;;;;;26.40;26.40;;;;;;;;5234364;28;8881;-72
2022/10/28 07:55:28;;;;;;;;;16.20;13.40;;;;;;;;5269127;28;8877;-72
2022/10/28 07:58:00;;;;;;;;;16.40;16.40;;;;;;;;5268845;28;8788;-72
2022/10/28 08:00:31;;;;;;;;;18.80;18.80;;;;;;;;5251945;28;8789;-72
2022/10/28 08:03:03;;;;;;;;;25.40;24.20;;;;;;;;5234748;28;8965;-72
2022/10/28 08:05:34;;;;;;;;;18.00;17.20;;;;;;;;5235239;28;8769;-73
2022/10/28 08:08:04;;;;;;;;;18.00;18.00;;;;;;;;5218073;28;8894;-72
2022/10/28 08:10:54;;;;;;;;;20.60;20.60;;;;;;;;5242638;28;10639;-71
2022/10/28 08:13:25;;;;;;;;;18.75;18.75;;;;;;;;5237662;28;8815;-72
2022/10/28 08:15:56;;;;;;;;;17.75;17.75;;;;;;;;5227399;28;11540;-72
2022/10/28 08:18:27;;;;;;;;;20.75;20.25;;;;;;;;5236710;28;10328;-72
2022/10/28 08:21:01;;;;;;;;;24.25;24.25;;;;;;;;5249999;28;11558;-72
2022/10/28 08:23:32;;;;;;;;;28.20;24.40;;;;;;;;5250678;28;11552;-73
2022/10/28 08:26:03;;;;;;;;;51.00;43.20;;;;;;;;5229128;28;8818;-71
2022/10/28 08:28:34;;;;;;;;;45.00;39.40;;;;;;;;5287007;28;8879;-72
2022/10/28 08:31:07;;;;;;;;;31.40;30.00;;;;;;;;5236561;28;8787;-71
2022/10/28 08:33:39;;;;;;;;;45.00;36.40;;;;;;;;5254679;28;8821;-71
2022/10/28 08:36:11;;;;;;;;;26.80;26.40;;;;;;;;5253170;28;8798;-71
2022/10/28 08:39:01;;;;;;;;;27.60;27.60;;;;;;;;5261972;28;9010;-71
2022/10/28 08:42:06;;;;;;;;;65.40;53.20;;;;;;;;5256213;28;8875;-71
2022/10/28 08:44:46;;;;;;;;;61.20;50.00;;;;;;;;5231512;28;8803;-71
2022/10/28 08:47:25;;;;;;;;;43.20;38.60;;;;;;;;5255240;28;8819;-71
2022/10/28 08:50:17;;;;;;;;;29.60;29.20;;;;;;;;5257560;28;9501;-71
2022/10/28 08:53:13;;;;;;;;;11.80;11.80;;;;;;;;5289298;28;8790;-71
2022/10/28 08:55:48;;;;;;;;;15.00;15.00;;;;;;;;5234083;28;8804;-71
2022/10/28 08:58:24;;;;;;;;;18.40;18.40;;;;;;;;5217291;28;8789;-71
2022/10/28 09:00:58;;;;;;;;;21.20;20.00;;;;;;;;5233711;28;8802;-71
2022/10/28 09:03:50;;;;;;;;;20.40;19.20;;;;;;;;5265823;28;8798;-72
2022/10/28 09:06:21;;;;;;;;;16.40;15.80;;;;;;;;5250161;28;8886;-72
2022/10/28 09:08:52;;;;;;;;;13.60;13.60;;;;;;;;5251704;28;9545;-71
2022/10/28 09:11:38;;;;;;;;;21.20;21.20;;;;;;;;5237558;28;8802;-71
2022/10/28 09:14:39;;;;;;;;;17.20;17.00;;;;;;;;5254260;28;8791;-71
2022/10/28 09:17:15;;;;;;;;;17.40;17.40;;;;;;;;5232947;28;9699;-71
2022/10/28 09:19:51;;;;;;;;;24.80;24.80;;;;;;;;5250978;28;8804;-71
2022/10/28 09:23:02;;;;;;;;;16.00;16.00;;;;;;;;5236401;28;8797;-72
2022/10/28 09:25:50;;;;;;;;;17.80;17.80;;;;;;;;5267394;28;8799;-71
2022/10/28 09:28:24;;;;;;;;;25.40;25.20;;;;;;;;5253779;28;8814;-72
2022/10/28 09:31:26;;;;;;;;;23.20;23.20;;;;;;;;5282898;28;8780;-71
2022/10/28 09:34:06;;;;;;;;;37.80;35.40;;;;;;;;5253199;28;8942;-72
2022/10/28 09:37:01;;;;;;;;;24.60;23.40;;;;;;;;5232862;28;8845;-73
2022/10/28 09:39:38;;;;;;;;;21.80;21.40;;;;;;;;5196517;28;8844;-71
2022/10/28 09:42:16;;;;;;;;;29.80;29.80;;;;;;;;5248948;28;8876;-72
2022/10/28 09:44:56;;;;;;;;;37.00;36.60;;;;;;;;5217279;28;8822;-70
2022/10/28 09:47:34;;;;;;;;;31.00;29.80;;;;;;;;5248931;28;9574;-70
2022/10/28 09:50:11;;;;;;;;;27.40;27.40;;;;;;;;5243088;28;8802;-71
2022/10/28 09:53:31;;;;;;;;;30.40;30.40;;;;;;;;5255264;28;8803;-69
2022/10/28 09:56:03;;;;;;;;;27.00;25.20;;;;;;;;5232079;28;9576;-73
2022/10/28 09:58:34;;;;;;;;;65.40;53.40;;;;;;;;5247859;28;8774;-72
2022/10/28 10:01:05;;;;;;;;;60.40;49.40;;;;;;;;5232888;28;8794;-71
2022/10/28 10:03:38;;;;;;;;;32.40;31.80;;;;;;;;5249520;28;8813;-72
2022/10/28 10:06:27;;;;;;;;;34.00;33.40;;;;;;;;5265343;28;8802;-72
2022/10/28 10:09:21;;;;;;;;;22.20;22.20;;;;;;;;5252831;28;8814;-71
2022/10/28 10:12:11;;;;;;;;;26.00;25.60;;;;;;;;5249821;28;8824;-71
2022/10/28 10:14:49;;;;;;;;;23.40;23.00;;;;;;;;5273286;28;8791;-71
2022/10/28 10:17:23;;;;;;;;;23.80;23.80;;;;;;;;5267267;28;8776;-71
2022/10/28 10:20:02;;;;;;;;;17.40;17.40;;;;;;;;5224102;28;8802;-70
2022/10/28 10:22:36;;;;;;;;;16.00;16.00;;;;;;;;5248814;28;8773;-71
2022/10/28 10:25:28;;;;;;;;;14.00;14.00;;;;;;;;5251401;28;8817;-70
2022/10/28 10:28:01;;;;;;;;;49.80;41.20;;;;;;;;5254924;28;8821;-70
2022/10/28 10:30:52;;;;;;;;;61.20;52.00;;;;;;;;5235872;28;9500;-70
2022/10/28 10:33:34;;;;;;;;;30.20;29.80;;;;;;;;5248509;28;8790;-71
2022/10/28 10:36:08;;;;;;;;;27.20;26.20;;;;;;;;5259067;28;8814;-67
2022/10/28 10:39:06;;;;;;;;;21.00;20.80;;;;;;;;5252816;28;8807;-71
2022/10/28 10:41:55;;;;;;;;;19.40;19.20;;;;;;;;5268566;28;8803;-72
2022/10/28 10:44:31;;;;;;;;;18.40;18.40;;;;;;;;5235584;28;8799;-72
2022/10/28 10:47:02;;;;;;;;;29.40;28.20;;;;;;;;5245463;28;8814;-73
2022/10/28 10:49:34;;;;;;;;;26.40;25.40;;;;;;;;5239657;28;8848;-72
2022/10/28 10:52:06;;;;;;;;;43.80;39.20;;;;;;;;5233370;28;8820;-72
2022/10/28 10:54:37;;;;;;;;;20.00;20.00;;;;;;;;5264382;28;8817;-73
2022/10/28 10:57:09;;;;;;;;;22.00;22.00;;;;;;;;5225302;28;8955;-75
2022/10/28 10:59:44;;;;;;;;;26.00;25.40;;;;;;;;5250048;28;10541;-73
2022/10/28 11:02:33;;;;;;;;;23.00;22.00;;;;;;;;5233176;28;8808;-73
2022/10/28 11:05:06;;;;;;;;;14.40;12.40;;;;;;;;5233741;28;8809;-71
2022/10/28 11:07:44;;;;;;;;;23.00;22.00;;;;;;;;5246230;28;8840;-71
2022/10/28 11:10:21;;;;;;;;;25.60;24.20;;;;;;;;5236958;28;8795;-71
2022/10/28 11:12:56;;;;;;;;;24.20;23.20;;;;;;;;5234772;28;8808;-71
2022/10/28 11:15:58;;;;;;;;;16.60;15.80;;;;;;;;5254483;28;9567;-71
2022/10/28 11:18:38;;;;;;;;;11.80;11.60;;;;;;;;5252165;28;8825;-71
2022/10/28 11:21:18;;;;;;;;;12.80;12.80;;;;;;;;5235511;28;8830;-71
2022/10/28 11:24:08;;;;;;;;;8.00;8.00;;;;;;;;5219213;28;8786;-72
2022/10/28 11:26:43;;;;;;;;;12.60;12.40;;;;;;;;5235921;28;8815;-71
2022/10/28 11:29:15;;;;;;;;;16.20;16.00;;;;;;;;5272983;28;8799;-72
2022/10/28 11:32:04;;;;;;;;;16.80;16.80;;;;;;;;5239995;28;8763;-71
2022/10/28 11:34:54;;;;;;;;;17.20;17.20;;;;;;;;5240029;28;9504;-72
2022/10/28 11:37:40;;;;;;;;;27.00;24.00;;;;;;;;5239696;28;8774;-72
2022/10/28 11:40:31;;;;;;;;;47.20;38.60;;;;;;;;5256401;28;8794;-71
2022/10/28 11:43:21;;;;;;;;;35.60;32.60;;;;;;;;5256389;28;8787;-72
2022/10/28 11:46:29;;;;;;;;;18.40;18.00;;;;;;;;5275356;28;8795;-72
2022/10/28 11:49:24;;;;;;;;;17.80;17.00;;;;;;;;5239744;28;8941;-72
2022/10/28 11:52:03;;;;;;;;;17.80;16.40;;;;;;;;5239424;28;8791;-72
2022/10/28 11:54:43;;;;;;;;;16.80;16.60;;;;;;;;5290863;28;8914;-72
2022/10/28 11:57:21;;;;;;;;;23.80;23.00;;;;;;;;5271956;28;9431;-71
2022/10/28 12:00:11;;;;;;;;;16.20;16.20;;;;;;;;5255840;28;8791;-72
2022/10/28 12:03:01;;;;;;;;;16.60;15.80;;;;;;;;5255391;28;8775;-70
2022/10/28 12:05:54;;;;;;;;;18.20;17.00;;;;;;;;5272624;28;8794;-71
2022/10/28 12:08:36;;;;;;;;;18.00;15.40;;;;;;;;5241406;28;8822;-71
2022/10/28 12:11:07;;;;;;;;;18.60;17.60;;;;;;;;5234432;28;8810;-71
2022/10/28 12:14:04;;;;;;;;;17.40;17.00;;;;;;;;5251349;28;8828;-71
2022/10/28 12:16:42;;;;;;;;;12.80;12.80;;;;;;;;5226556;28;8876;-72
2022/10/28 12:19:16;;;;;;;;;15.00;14.80;;;;;;;;5230362;28;8792;-72
2022/10/28 12:22:06;;;;;;;;;12.00;12.00;;;;;;;;5229651;28;8799;-71
2022/10/28 12:24:38;;;;;;;;;12.40;12.40;;;;;;;;5230375;28;8779;-70
2022/10/28 12:27:13;;;;;;;;;16.20;16.20;;;;;;;;5227595;28;8815;-72
2022/10/28 12:29:47;;;;;;;;;25.00;25.00;;;;;;;;5260674;28;8843;-72
2022/10/28 12:32:21;;;;;;;;;19.80;19.80;;;;;;;;5251248;28;8769;-72
2022/10/28 12:35:00;;;;;;;;;12.40;12.40;;;;;;;;5234443;28;9563;-72
2022/10/28 12:37:40;;;;;;;;;12.60;12.60;;;;;;;;5234314;28;8784;-71
2022/10/28 12:40:17;;;;;;;;;16.60;16.60;;;;;;;;5250808;28;8851;-72
2022/10/28 12:43:16;;;;;;;;;19.80;19.80;;;;;;;;5253941;28;9662;-72
2022/10/28 12:45:48;;;;;;;;;22.00;19.60;;;;;;;;5234327;28;8868;-71
2022/10/28 12:48:22;;;;;;;;;16.00;15.60;;;;;;;;5267451;28;8820;-72
2022/10/28 12:51:13;;;;;;;;;16.60;15.40;;;;;;;;5234106;28;8904;-71
2022/10/28 12:54:06;;;;;;;;;22.00;19.80;;;;;;;;5234298;28;8776;-71
2022/10/28 12:56:41;;;;;;;;;22.40;22.40;;;;;;;;5234011;28;8826;-70
2022/10/28 12:59:38;;;;;;;;;23.40;22.20;;;;;;;;5250496;28;8891;-71
2022/10/28 13:02:39;;;;;;;;;19.20;16.80;;;;;;;;5252726;28;8795;-70
2022/10/28 13:05:17;;;;;;;;;24.80;24.80;;;;;;;;5260960;28;8804;-71
2022/10/28 13:07:57;;;;;;;;;23.00;22.60;;;;;;;;5234176;28;8784;-71
2022/10/28 13:10:28;;;;;;;;;15.20;15.00;;;;;;;;5233716;28;8947;-71
2022/10/28 13:13:05;;;;;;;;;13.80;13.00;;;;;;;;5233885;28;8890;-71
2022/10/28 13:16:03;;;;;;;;;14.20;14.20;;;;;;;;5277225;28;8854;-70
2022/10/28 13:18:46;;;;;;;;;12.60;12.20;;;;;;;;5237837;28;8783;-71
2022/10/28 13:21:29;;;;;;;;;12.20;11.80;;;;;;;;5271137;28;8811;-71
2022/10/28 13:24:03;;;;;;;;;12.00;12.00;;;;;;;;5253777;28;8786;-72
2022/10/28 13:26:36;;;;;;;;;9.80;9.80;;;;;;;;5232931;28;8817;-71
2022/10/28 13:29:17;;;;;;;;;12.00;11.20;;;;;;;;5233725;28;9564;-70
2022/10/28 13:31:49;;;;;;;;;4.60;4.60;;;;;;;;5249843;28;8805;-71
2022/10/28 13:34:28;;;;;;;;;7.80;7.80;;;;;;;;5232765;28;8782;-72
2022/10/28 13:37:04;;;;;;;;;15.80;15.80;;;;;;;;5250740;28;8871;-71
2022/10/28 13:39:53;;;;;;;;;34.00;33.00;;;;;;;;5249701;28;8806;-72
2022/10/28 13:42:24;;;;;;;;;30.20;29.40;;;;;;;;5249235;28;8810;-71
2022/10/28 13:44:55;;;;;;;;;10.50;9.25;;;;;;;;5249339;28;8793;-72
2022/10/28 13:47:33;;;;;;;;;23.60;23.60;;;;;;;;5249015;28;11475;-71
2022/10/28 13:50:07;;;;;;;;;17.00;15.40;;;;;;;;5232757;28;8825;-72
2022/10/28 13:53:01;;;;;;;;;14.00;14.00;;;;;;;;5249492;28;8777;-72
2022/10/28 13:55:38;;;;;;;;;18.00;16.60;;;;;;;;5232057;28;8797;-72
2022/10/28 13:58:38;;;;;;;;;17.40;17.40;;;;;;;;5249388;28;8813;-71
2022/10/28 14:01:41;;;;;;;;;49.20;42.60;;;;;;;;5247727;28;8806;-71
2022/10/28 14:04:20;;;;;;;;;52.00;45.20;;;;;;;;5210808;28;8798;-71
2022/10/28 14:07:02;;;;;;;;;98.40;83.80;;;;;;;;5266271;28;8824;-71
2022/10/28 14:09:34;;;;;;;;;63.80;52.00;;;;;;;;5248283;28;8833;-72
2022/10/28 14:12:17;;;;;;;;;51.00;44.60;;;;;;;;5236437;28;8790;-72
2022/10/28 14:15:14;;;;;;;;;42.60;39.40;;;;;;;;5236307;28;8794;-73
2022/10/28 14:17:48;;;;;;;;;40.20;39.20;;;;;;;;5232496;28;8818;-72
2022/10/28 14:20:20;;;;;;;;;39.80;36.80;;;;;;;;5231310;28;8836;-73
2022/10/28 14:22:53;;;;;;;;;29.40;29.40;;;;;;;;5249157;28;8828;-74
2022/10/28 14:25:37;;;;;;;;;38.80;35.40;;;;;;;;5246007;28;8809;-73
2022/10/28 14:28:26;;;;;;;;;39.20;36.60;;;;;;;;5234457;28;8821;-73
2022/10/28 14:31:06;;;;;;;;;39.00;38.00;;;;;;;;5215391;28;8855;-72
2022/10/28 14:33:37;;;;;;;;;37.40;36.40;;;;;;;;5215843;28;9315;-71
2022/10/28 14:36:18;;;;;;;;;36.40;33.20;;;;;;;;5231920;28;9485;-71
2022/10/28 14:38:52;;;;;;;;;25.00;25.00;;;;;;;;5250733;28;8841;-71
2022/10/28 14:41:29;;;;;;;;;32.80;32.80;;;;;;;;5231798;28;8916;-72
2022/10/28 14:44:03;;;;;;;;;35.80;34.60;;;;;;;;5216133;28;8812;-73
2022/10/28 14:47:10;;;;;;;;;42.40;38.80;;;;;;;;5215580;28;8785;-72
2022/10/28 14:49:44;;;;;;;;;63.60;48.60;;;;;;;;5160940;28;8850;-72
2022/10/28 14:52:16;;;;;;;;;45.40;39.80;;;;;;;;5156966;28;8801;-71
2022/10/28 14:54:55;;;;;;;;;50.20;42.00;;;;;;;;5231853;28;8785;-74
2022/10/28 14:57:27;;;;;;;;;40.60;38.40;;;;;;;;5218049;28;8932;-74
2022/10/28 15:00:25;;;;;;;;;45.60;41.00;;;;;;;;5249423;28;8798;-72
2022/10/28 15:02:57;;;;;;;;;31.40;30.20;;;;;;;;5247670;28;8832;-76
2022/10/28 15:05:29;;;;;;;;;34.80;34.60;;;;;;;;5286061;28;8829;-72
2022/10/28 15:08:02;;;;;;;;;36.20;34.40;;;;;;;;5234753;28;8837;-73
2022/10/28 15:10:33;;;;;;;;;38.80;37.40;;;;;;;;5282759;28;8815;-73
2022/10/28 15:13:04;;;;;;;;;39.40;37.00;;;;;;;;5234406;28;8806;-72
2022/10/28 15:15:35;;;;;;;;;35.20;32.20;;;;;;;;5250905;28;8803;-72
2022/10/28 15:18:24;;;;;;;;;31.80;31.20;;;;;;;;5252916;28;8803;-73
2022/10/28 15:21:09;;;;;;;;;30.40;29.40;;;;;;;;5253809;28;8837;-73
2022/10/28 15:23:59;;;;;;;;;40.20;35.80;;;;;;;;5267281;28;8812;-73
2022/10/28 15:26:30;;;;;;;;;29.40;29.00;;;;;;;;5248210;28;8817;-72
2022/10/28 15:29:03;;;;;;;;;30.40;28.00;;;;;;;;5246298;28;8820;-71
2022/10/28 15:31:53;;;;;;;;;30.40;29.00;;;;;;;;5230030;28;9545;-71
2022/10/28 15:34:28;;;;;;;;;27.40;27.40;;;;;;;;5233151;28;8797;-71
2022/10/28 15:36:59;;;;;;;;;38.40;34.20;;;;;;;;5250234;28;8805;-72
2022/10/28 15:39:29;;;;;;;;;34.20;33.00;;;;;;;;5251426;28;8795;-71